sensor_id;sensor_type;location;lat;lon;timestamp;pressure;altitude;pressure_sealevel;temperature;humidity
66627;BME280;53498;50.422;14.912;2023-11-21T00:00:19;98206.09;;;7.01;100.00
66627;BME280;53498;50.422;14.912;2023-11-21T00:03:05;98207.81;;;7.04;100.00
66627;BME280;53498;50.422;14.912;2023-11-21T00:05:31;98220.75;;;7.30;100.00
66627;BME280;53498;50.422;14.912;2023-11-21T00:07:57;98218.16;;;7.36;100.00
66627;BME280;53498;50.422;14.912;2023-11-21T00:10:23;98217.28;;;7.20;100.00
66627;BME280;53498;50.422;14.912;2023-11-21T00:12:48;98225.06;;;7.35;100.00
66627;BME280;53498;50.422;14.912;2023-11-21T00:15:14;98219.91;;;7.34;100.00
66627;BME280;53498;50.422;14.912;2023-11-21T00:17:40;98223.31;;;7.30;100.00
66627;BME280;53498;50.422;14.912;2023-11-21T00:20:06;98217.28;;;7.48;100.00
66627;BME280;53498;50.422;14.912;2023-11-21T00:22:33;98216.41;;;7.53;100.00
66627;BME280;53498;50.422;14.912;2023-11-21T00:24:59;98214.69;;;7.55;100.00
66627;BME280;53498;50.422;14.912;2023-11-21T00:27:25;98211.25;;;7.53;100.00
66627;BME280;53498;50.422;14.912;2023-11-21T00:29:50;98217.28;;;7.45;100.00
66627;BME280;53498;50.422;14.912;2023-11-21T00:32:16;98214.69;;;7.41;100.00
66627;BME280;53498;50.422;14.912;2023-11-21T00:34:42;98211.25;;;7.47;100.00
66627;BME280;53498;50.422;14.912;2023-11-21T00:37:07;98212.13;;;7.40;100.00
66627;BME280;53498;50.422;14.912;2023-11-21T00:39:33;98209.53;;;7.49;100.00
66627;BME280;53498;50.422;14.912;2023-11-21T00:42:00;98206.06;;;7.47;100.00
66627;BME280;53498;50.422;14.912;2023-11-21T00:44:26;98205.22;;;7.47;100.00
66627;BME280;53498;50.422;14.912;2023-11-21T00:46:52;98211.25;;;7.47;100.00
66627;BME280;53498;50.422;14.912;2023-11-21T00:49:18;98203.47;;;7.50;100.00
66627;BME280;53498;50.422;14.912;2023-11-21T00:51:43;98207.78;;;7.48;100.00
66627;BME280;53498;50.422;14.912;2023-11-21T00:54:09;98206.91;;;7.54;100.00
66627;BME280;53498;50.422;14.912;2023-11-21T00:56:35;98209.53;;;7.45;100.00
66627;BME280;53498;50.422;14.912;2023-11-21T00:59:00;98213.81;;;7.59;100.00
66627;BME280;53498;50.422;14.912;2023-11-21T01:01:26;98218.13;;;7.57;100.00
66627;BME280;53498;50.422;14.912;2023-11-21T01:03:51;98211.25;;;7.50;100.00
66627;BME280;53498;50.422;14.912;2023-11-21T01:06:17;98212.09;;;7.54;100.00
66627;BME280;53498;50.422;14.912;2023-11-21T01:08:43;98223.31;;;7.48;100.00
66627;BME280;53498;50.422;14.912;2023-11-21T01:11:10;98218.13;;;7.57;100.00
66627;BME280;53498;50.422;14.912;2023-11-21T01:13:41;98221.53;;;7.81;100.00
66627;BME280;53498;50.422;14.912;2023-11-21T01:16:07;98221.56;;;7.61;100.00
66627;BME280;53498;50.422;14.912;2023-11-21T01:18:33;98223.25;;;7.82;100.00
66627;BME280;53498;50.422;14.912;2023-11-21T01:21:00;98219.78;;;7.83;100.00
66627;BME280;53498;50.422;14.912;2023-11-21T01:23:26;98222.38;;;7.91;100.00
66627;BME280;53498;50.422;14.912;2023-11-21T01:25:54;98222.38;;;7.86;100.00
66627;BME280;53498;50.422;14.912;2023-11-21T01:28:20;98224.16;;;7.72;100.00
66627;BME280;53498;50.422;14.912;2023-11-21T01:30:45;98221.56;;;7.72;100.00
66627;BME280;53498;50.422;14.912;2023-11-21T01:33:11;98224.16;;;7.55;100.00
66627;BME280;53498;50.422;14.912;2023-11-21T01:35:37;98235.41;;;7.43;100.00
66627;BME280;53498;50.422;14.912;2023-11-21T01:38:03;98225.88;;;7.63;100.00
66627;BME280;53498;50.422;14.912;2023-11-21T01:40:29;98225.00;;;7.68;100.00
66627;BME280;53498;50.422;14.912;2023-11-21T01:42:56;98220.66;;;7.79;100.00
66627;BME280;53498;50.422;14.912;2023-11-21T01:45:23;98224.97;;;7.81;100.00
66627;BME280;53498;50.422;14.912;2023-11-21T01:47:50;98225.03;;;7.60;100.00
66627;BME280;53498;50.422;14.912;2023-11-21T01:50:16;98223.25;;;7.76;100.00
66627;BME280;53498;50.422;14.912;2023-11-21T01:52:45;98225.00;;;7.64;100.00
66627;BME280;53498;50.422;14.912;2023-11-21T01:55:11;98229.34;;;7.56;100.00
66627;BME280;53498;50.422;14.912;2023-11-21T01:57:39;98240.56;;;7.51;100.00
66627;BME280;53498;50.422;14.912;2023-11-21T02:00:06;98241.44;;;7.62;100.00
66627;BME280;53498;50.422;14.912;2023-11-21T02:02:44;98247.44;;;7.72;100.00
66627;BME280;53498;50.422;14.912;2023-11-21T02:05:15;98238.81;;;7.71;100.00
66627;BME280;53498;50.422;14.912;2023-11-21T02:07:41;98234.53;;;7.62;100.00
66627;BME280;53498;50.422;14.912;2023-11-21T02:10:08;98245.72;;;7.68;100.00
66627;BME280;53498;50.422;14.912;2023-11-21T02:12:34;98240.53;;;7.61;100.00
66627;BME280;53498;50.422;14.912;2023-11-21T02:15:03;98237.09;;;7.55;100.00
66627;BME280;53498;50.422;14.912;2023-11-21T02:17:35;98235.41;;;7.43;100.00
66627;BME280;53498;50.422;14.912;2023-11-21T02:20:01;98232.81;;;7.38;100.00
66627;BME280;53498;50.422;14.912;2023-11-21T02:22:31;98239.72;;;7.38;100.00
66627;BME280;53498;50.422;14.912;2023-11-21T02:24:59;98229.38;;;7.35;100.00
66627;BME280;53498;50.422;14.912;2023-11-21T02:27:24;98235.41;;;7.49;100.00
66627;BME280;53498;50.422;14.912;2023-11-21T02:29:52;98232.78;;;7.60;100.00
66627;BME280;53498;50.422;14.912;2023-11-21T02:32:17;98225.91;;;7.48;100.00
66627;BME280;53498;50.422;14.912;2023-11-21T02:34:45;98225.91;;;7.51;100.00
66627;BME280;53498;50.422;14.912;2023-11-21T02:37:11;98225.03;;;7.58;100.00
66627;BME280;53498;50.422;14.912;2023-11-21T02:39:36;98237.97;;;7.38;100.00
66627;BME280;53498;50.422;14.912;2023-11-21T02:42:03;98225.94;;;7.28;100.00
66627;BME280;53498;50.422;14.912;2023-11-21T02:44:29;98236.25;;;7.24;100.00
66627;BME280;53498;50.422;14.912;2023-11-21T02:46:54;98231.06;;;7.42;100.00
66627;BME280;53498;50.422;14.912;2023-11-21T02:49:20;98225.03;;;7.45;100.00
66627;BME280;53498;50.422;14.912;2023-11-21T02:51:45;98224.16;;;7.52;100.00
66627;BME280;53498;50.422;14.912;2023-11-21T02:54:11;98226.75;;;7.56;100.00
66627;BME280;53498;50.422;14.912;2023-11-21T02:56:37;98219.88;;;7.51;100.00
66627;BME280;53498;50.422;14.912;2023-11-21T02:59:02;98223.31;;;7.51;100.00
66627;BME280;53498;50.422;14.912;2023-11-21T03:01:28;98227.63;;;7.45;100.00
66627;BME280;53498;50.422;14.912;2023-11-21T03:03:54;98225.06;;;7.49;100.00
66627;BME280;53498;50.422;14.912;2023-11-21T03:06:21;98230.25;;;7.40;100.00
66627;BME280;53498;50.422;14.912;2023-11-21T03:08:47;98220.75;;;7.44;100.00
66627;BME280;53498;50.422;14.912;2023-11-21T03:11:15;98230.25;;;7.34;100.00
66627;BME280;53498;50.422;14.912;2023-11-21T03:13:41;98227.63;;;7.38;100.00
66627;BME280;53498;50.422;14.912;2023-11-21T03:16:10;98218.13;;;7.45;100.00
66627;BME280;53498;50.422;14.912;2023-11-21T03:18:37;98226.75;;;7.52;100.00
66627;BME280;53498;50.422;14.912;2023-11-21T03:21:03;98224.19;;;7.44;100.00
66627;BME280;53498;50.422;14.912;2023-11-21T03:23:30;98227.66;;;7.40;100.00
66627;BME280;53498;50.422;14.912;2023-11-21T03:25:55;98226.78;;;7.38;100.00
66627;BME280;53498;50.422;14.912;2023-11-21T03:28:21;98231.06;;;7.39;100.00
66627;BME280;53498;50.422;14.912;2023-11-21T03:30:46;98233.66;;;7.30;100.00
66627;BME280;53498;50.422;14.912;2023-11-21T03:33:12;98237.13;;;7.19;100.00
66627;BME280;53498;50.422;14.912;2023-11-21T03:35:37;98240.56;;;7.05;100.00
66627;BME280;53498;50.422;14.912;2023-11-21T03:38:03;98239.69;;;6.87;100.00
66627;BME280;53498;50.422;14.912;2023-11-21T03:40:30;98233.69;;;6.90;100.00
66627;BME280;53498;50.422;14.912;2023-11-21T03:42:57;98235.41;;;7.03;100.00
66627;BME280;53498;50.422;14.912;2023-11-21T03:45:22;98237.13;;;7.01;100.00
66627;BME280;53498;50.422;14.912;2023-11-21T03:47:48;98234.53;;;6.98;100.00
66627;BME280;53498;50.422;14.912;2023-11-21T03:50:14;98237.09;;;6.83;100.00
66627;BME280;53498;50.422;14.912;2023-11-21T03:52:41;98237.06;;;6.73;100.00
66627;BME280;53498;50.422;14.912;2023-11-21T03:55:07;98244.84;;;6.80;100.00
66627;BME280;53498;50.422;14.912;2023-11-21T03:57:33;98237.09;;;6.80;100.00
66627;BME280;53498;50.422;14.912;2023-11-21T03:59:58;98249.16;;;6.81;100.00
66627;BME280;53498;50.422;14.912;2023-11-21T04:02:24;98241.44;;;6.99;100.00
66627;BME280;53498;50.422;14.912;2023-11-21T04:04:51;98238.84;;;6.90;100.00
66627;BME280;53498;50.422;14.912;2023-11-21T04:07:17;98246.59;;;6.90;100.00
66627;BME280;53498;50.422;14.912;2023-11-21T04:09:43;98254.38;;;7.08;100.00
66627;BME280;53498;50.422;14.912;2023-11-21T04:12:09;98256.97;;;7.31;100.00
66627;BME280;53498;50.422;14.912;2023-11-21T04:14:35;98258.66;;;7.11;100.00
66627;BME280;53498;50.422;14.912;2023-11-21T04:17:00;98256.09;;;7.09;100.00
66627;BME280;53498;50.422;14.912;2023-11-21T04:19:26;98257.78;;;6.95;100.00
66627;BME280;53498;50.422;14.912;2023-11-21T04:21:51;98252.63;;;7.04;100.00
66627;BME280;53498;50.422;14.912;2023-11-21T04:24:17;98262.09;;;6.91;100.00
66627;BME280;53498;50.422;14.912;2023-11-21T04:26:44;98263.00;;;7.13;100.00
66627;BME280;53498;50.422;14.912;2023-11-21T04:29:09;98256.97;;;7.10;100.00
66627;BME280;53498;50.422;14.912;2023-11-21T04:31:35;98266.44;;;7.06;100.00
66627;BME280;53498;50.422;14.912;2023-11-21T04:34:00;98264.72;;;7.08;100.00
66627;BME280;53498;50.422;14.912;2023-11-21T04:36:26;98264.72;;;7.24;100.00
66627;BME280;53498;50.422;14.912;2023-11-21T04:38:52;98272.47;;;7.05;100.00
66627;BME280;53498;50.422;14.912;2023-11-21T04:41:17;98266.44;;;7.09;100.00
66627;BME280;53498;50.422;14.912;2023-11-21T04:43:43;98272.47;;;7.10;100.00
66627;BME280;53498;50.422;14.912;2023-11-21T04:46:09;98275.94;;;7.27;100.00
66627;BME280;53498;50.422;14.912;2023-11-21T04:48:34;98282.81;;;7.39;100.00
66627;BME280;53498;50.422;14.912;2023-11-21T04:51:00;98278.50;;;7.16;100.00
66627;BME280;53498;50.422;14.912;2023-11-21T04:53:25;98282.81;;;7.01;100.00
66627;BME280;53498;50.422;14.912;2023-11-21T04:55:51;98283.66;;;7.07;100.00
66627;BME280;53498;50.422;14.912;2023-11-21T04:58:17;98286.28;;;7.18;100.00
66627;BME280;53498;50.422;14.912;2023-11-21T05:00:48;98280.25;;;7.25;100.00
66627;BME280;53498;50.422;14.912;2023-11-21T05:03:15;98283.66;;;7.07;100.00
66627;BME280;53498;50.422;14.912;2023-11-21T05:05:40;98278.50;;;7.10;100.00
66627;BME280;53498;50.422;14.912;2023-11-21T05:08:06;98270.75;;;7.09;100.00
66627;BME280;53498;50.422;14.912;2023-11-21T05:10:31;98280.25;;;7.16;100.00
66627;BME280;53498;50.422;14.912;2023-11-21T05:12:57;98283.69;;;7.35;100.00
66627;BME280;53498;50.422;14.912;2023-11-21T05:15:23;98279.41;;;7.31;100.00
66627;BME280;53498;50.422;14.912;2023-11-21T05:17:49;98271.63;;;7.22;100.00
66627;BME280;53498;50.422;14.912;2023-11-21T05:20:17;98282.84;;;7.31;100.00
66627;BME280;53498;50.422;14.912;2023-11-21T05:22:46;98287.16;;;7.37;100.00
66627;BME280;53498;50.422;14.912;2023-11-21T05:25:14;98294.03;;;7.32;100.00
66627;BME280;53498;50.422;14.912;2023-11-21T05:27:39;98294.03;;;7.29;100.00
66627;BME280;53498;50.422;14.912;2023-11-21T05:30:06;98283.69;;;7.16;100.00
66627;BME280;53498;50.422;14.912;2023-11-21T05:32:32;98289.72;;;7.38;100.00
66627;BME280;53498;50.422;14.912;2023-11-21T05:35:01;98290.56;;;7.17;100.00
66627;BME280;53498;50.422;14.912;2023-11-21T05:37:27;98289.72;;;7.20;100.00
66627;BME280;53498;50.422;14.912;2023-11-21T05:39:53;98289.72;;;7.18;100.00
66627;BME280;53498;50.422;14.912;2023-11-21T05:42:22;98299.19;;;7.10;100.00
66627;BME280;53498;50.422;14.912;2023-11-21T05:44:48;98296.56;;;6.86;100.00
66627;BME280;53498;50.422;14.912;2023-11-21T05:47:14;98293.94;;;6.70;100.00
66627;BME280;53498;50.422;14.912;2023-11-21T05:49:40;98297.44;;;6.91;100.00
66627;BME280;53498;50.422;14.912;2023-11-21T05:52:06;98299.13;;;6.86;100.00
66627;BME280;53498;50.422;14.912;2023-11-21T05:54:32;98301.75;;;6.84;100.00
66627;BME280;53498;50.422;14.912;2023-11-21T05:56:59;98300.03;;;6.89;100.00
66627;BME280;53498;50.422;14.912;2023-11-21T05:59:25;98300.00;;;6.92;100.00
66627;BME280;53498;50.422;14.912;2023-11-21T06:01:50;98303.44;;;6.82;100.00
66627;BME280;53498;50.422;14.912;2023-11-21T06:04:16;98308.63;;;6.82;100.00
66627;BME280;53498;50.422;14.912;2023-11-21T06:06:43;98303.41;;;6.62;100.00
66627;BME280;53498;50.422;14.912;2023-11-21T06:09:09;98305.97;;;6.59;100.00
66627;BME280;53498;50.422;14.912;2023-11-21T06:11:35;98317.19;;;6.66;100.00
66627;BME280;53498;50.422;14.912;2023-11-21T06:14:01;98319.78;;;6.69;100.00
66627;BME280;53498;50.422;14.912;2023-11-21T06:16:27;98317.13;;;6.46;100.00
66627;BME280;53498;50.422;14.912;2023-11-21T06:18:53;98326.63;;;6.58;100.00
66627;BME280;53498;50.422;14.912;2023-11-21T06:21:18;98321.50;;;6.62;100.00
66627;BME280;53498;50.422;14.912;2023-11-21T06:23:44;98320.69;;;6.80;100.00
66627;BME280;53498;50.422;14.912;2023-11-21T06:26:10;98324.13;;;6.79;100.00
66627;BME280;53498;50.422;14.912;2023-11-21T06:28:36;98318.94;;;6.73;100.00
66627;BME280;53498;50.422;14.912;2023-11-21T06:31:02;98329.25;;;6.65;100.00
66627;BME280;53498;50.422;14.912;2023-11-21T06:33:33;98334.38;;;6.58;100.00
66627;BME280;53498;50.422;14.912;2023-11-21T06:35:59;98331.91;;;6.84;100.00
66627;BME280;53498;50.422;14.912;2023-11-21T06:38:28;98331.03;;;6.82;100.00
66627;BME280;53498;50.422;14.912;2023-11-21T06:40:58;98334.44;;;6.76;100.00
66627;BME280;53498;50.422;14.912;2023-11-21T06:43:27;98341.34;;;6.76;100.00
66627;BME280;53498;50.422;14.912;2023-11-21T06:45:52;98342.22;;;6.75;100.00
66627;BME280;53498;50.422;14.912;2023-11-21T06:48:18;98348.28;;;6.95;100.00
66627;BME280;53498;50.422;14.912;2023-11-21T06:50:44;98348.34;;;7.15;100.00
66627;BME280;53498;50.422;14.912;2023-11-21T06:53:09;98345.69;;;6.89;100.00
66627;BME280;53498;50.422;14.912;2023-11-21T06:55:35;98349.09;;;6.72;100.00
66627;BME280;53498;50.422;14.912;2023-11-21T06:58:01;98346.50;;;6.69;100.00
66627;BME280;53498;50.422;14.912;2023-11-21T07:00:26;98353.44;;;6.84;100.00
66627;BME280;53498;50.422;14.912;2023-11-21T07:02:54;98351.72;;;6.92;100.00
66627;BME280;53498;50.422;14.912;2023-11-21T07:05:22;98358.59;;;6.89;100.00
66627;BME280;53498;50.422;14.912;2023-11-21T07:07:49;98353.53;;;7.16;100.00
66627;BME280;53498;50.422;14.912;2023-11-21T07:10:15;98359.59;;;7.28;100.00
66627;BME280;53498;50.422;14.912;2023-11-21T07:12:41;98358.72;;;7.26;100.00
66627;BME280;53498;50.422;14.912;2023-11-21T07:15:08;98359.53;;;7.09;100.00
66627;BME280;53498;50.422;14.912;2023-11-21T07:17:35;98365.53;;;6.87;100.00
66627;BME280;53498;50.422;14.912;2023-11-21T07:20:01;98365.50;;;6.81;100.00
66627;BME280;53498;50.422;14.912;2023-11-21T07:22:27;98372.34;;;6.69;100.00
66627;BME280;53498;50.422;14.912;2023-11-21T07:24:53;98376.63;;;6.64;100.00
66627;BME280;53498;50.422;14.912;2023-11-21T07:27:19;98371.53;;;6.87;100.00
66627;BME280;53498;50.422;14.912;2023-11-21T07:29:44;98358.59;;;6.89;100.00
66627;BME280;53498;50.422;14.912;2023-11-21T07:32:10;98357.75;;;6.87;100.00
66627;BME280;53498;50.422;14.912;2023-11-21T07:34:36;98364.63;;;6.82;100.00
66627;BME280;53498;50.422;14.912;2023-11-21T07:37:03;98365.53;;;6.90;100.00
66627;BME280;53498;50.422;14.912;2023-11-21T07:39:28;98368.09;;;6.88;100.00
66627;BME280;53498;50.422;14.912;2023-11-21T07:41:54;98375.06;;;7.09;100.00
66627;BME280;53498;50.422;14.912;2023-11-21T07:44:20;98373.31;;;7.07;100.00
66627;BME280;53498;50.422;14.912;2023-11-21T07:46:46;98365.59;;;7.22;100.00
66627;BME280;53498;50.422;14.912;2023-11-21T07:49:12;98370.78;;;7.30;100.00
66627;BME280;53498;50.422;14.912;2023-11-21T07:51:42;98373.38;;;7.33;100.00
66627;BME280;53498;50.422;14.912;2023-11-21T07:54:07;98379.44;;;7.35;100.00
66627;BME280;53498;50.422;14.912;2023-11-21T07:56:33;98378.56;;;7.33;100.00
66627;BME280;53498;50.422;14.912;2023-11-21T07:58:58;98375.09;;;7.25;100.00
66627;BME280;53498;50.422;14.912;2023-11-21T08:01:24;98380.31;;;7.34;100.00
66627;BME280;53498;50.422;14.912;2023-11-21T08:03:50;98380.31;;;7.40;100.00
66627;BME280;53498;50.422;14.912;2023-11-21T08:06:18;98375.16;;;7.46;100.00
66627;BME280;53498;50.422;14.912;2023-11-21T08:08:43;98373.41;;;7.67;100.00
66627;BME280;53498;50.422;14.912;2023-11-21T08:11:09;98379.47;;;7.56;100.00
66627;BME280;53498;50.422;14.912;2023-11-21T08:13:37;98376.88;;;7.59;100.00
66627;BME280;53498;50.422;14.912;2023-11-21T08:16:03;98379.44;;;7.64;100.00
66627;BME280;53498;50.422;14.912;2023-11-21T08:18:30;98386.38;;;7.62;100.00
66627;BME280;53498;50.422;14.912;2023-11-21T08:20:56;98384.59;;;7.49;100.00
66627;BME280;53498;50.422;14.912;2023-11-21T08:23:22;98389.81;;;7.47;100.00
66627;BME280;53498;50.422;14.912;2023-11-21T08:25:52;98387.22;;;7.44;100.00
66627;BME280;53498;50.422;14.912;2023-11-21T08:28:18;98385.47;;;7.37;100.00
66627;BME280;53498;50.422;14.912;2023-11-21T08:30:44;98393.25;;;7.43;100.00
66627;BME280;53498;50.422;14.912;2023-11-21T08:33:10;98393.25;;;7.60;100.00
66627;BME280;53498;50.422;14.912;2023-11-21T08:35:37;98386.38;;;7.62;100.00
66627;BME280;53498;50.422;14.912;2023-11-21T08:38:03;98388.09;;;7.57;100.00
66627;BME280;53498;50.422;14.912;2023-11-21T08:40:30;98388.09;;;7.72;100.00
66627;BME280;53498;50.422;14.912;2023-11-21T08:42:56;98382.91;;;7.80;100.00
66627;BME280;53498;50.422;14.912;2023-11-21T08:45:25;98389.81;;;7.70;100.00
66627;BME280;53498;50.422;14.912;2023-11-21T08:47:51;98388.09;;;7.78;100.00
66627;BME280;53498;50.422;14.912;2023-11-21T08:50:17;98393.28;;;7.91;100.00
66627;BME280;53498;50.422;14.912;2023-11-21T08:52:44;98402.78;;;7.93;100.00
66627;BME280;53498;50.422;14.912;2023-11-21T08:55:10;98396.75;;;7.83;100.00
66627;BME280;53498;50.422;14.912;2023-11-21T08:57:44;98404.47;;;7.89;100.00
66627;BME280;53498;50.422;14.912;2023-11-21T09:00:10;98402.75;;;8.04;100.00
66627;BME280;53498;50.422;14.912;2023-11-21T09:02:45;98409.66;;;8.19;100.00
66627;BME280;53498;50.422;14.912;2023-11-21T09:05:13;98409.66;;;8.19;100.00
66627;BME280;53498;50.422;14.912;2023-11-21T09:07:40;98416.56;;;8.41;100.00
66627;BME280;53498;50.422;14.912;2023-11-21T09:10:09;98419.16;;;8.41;100.00
66627;BME280;53498;50.422;14.912;2023-11-21T09:12:36;98412.25;;;8.23;100.00
66627;BME280;53498;50.422;14.912;2023-11-21T09:15:04;98414.84;;;8.25;100.00
66627;BME280;53498;50.422;14.912;2023-11-21T09:17:31;98416.56;;;8.20;100.00
66627;BME280;53498;50.422;14.912;2023-11-21T09:19:57;98417.41;;;8.29;100.00
66627;BME280;53498;50.422;14.912;2023-11-21T09:22:50;98418.28;;;8.34;100.00
66627;BME280;53498;50.422;14.912;2023-11-21T09:25:44;98421.75;;;8.38;100.00
66627;BME280;53498;50.422;14.912;2023-11-21T09:28:40;98430.41;;;8.43;100.00
66627;BME280;53498;50.422;14.912;2023-11-21T09:31:36;98426.06;;;8.56;100.00
66627;BME280;53498;50.422;14.912;2023-11-21T09:34:42;98428.63;;;8.59;100.00
66627;BME280;53498;50.422;14.912;2023-11-21T09:37:36;98425.16;;;8.62;100.00
66627;BME280;53498;50.422;14.912;2023-11-21T09:40:32;98423.38;;;8.82;100.00
66627;BME280;53498;50.422;14.912;2023-11-21T09:43:28;98425.13;;;8.74;100.00
66627;BME280;53498;50.422;14.912;2023-11-21T09:46:25;98422.50;;;8.85;100.00
66627;BME280;53498;50.422;14.912;2023-11-21T09:49:23;98431.97;;;8.99;100.00
66627;BME280;53498;50.422;14.912;2023-11-21T09:52:26;98438.03;;;8.92;100.00
66627;BME280;53498;50.422;14.912;2023-11-21T09:55:21;98436.31;;;8.88;100.00
66627;BME280;53498;50.422;14.912;2023-11-21T09:58:15;98438.97;;;8.76;100.00
66627;BME280;53498;50.422;14.912;2023-11-21T10:01:09;98444.09;;;8.94;100.00
66627;BME280;53498;50.422;14.912;2023-11-21T15:33:39;98642.09;;;5.94;100.00
66627;BME280;53498;50.422;14.912;2023-11-21T15:36:05;98642.75;;;5.77;100.00
66627;BME280;53498;50.422;14.912;2023-11-21T15:38:34;98646.06;;;5.69;100.00
66627;BME280;53498;50.422;14.912;2023-11-21T15:41:10;98659.88;;;5.71;100.00
66627;BME280;53498;50.422;14.912;2023-11-21T15:43:58;98658.19;;;5.74;100.00
66627;BME280;53498;50.422;14.912;2023-11-21T15:46:24;98663.97;;;5.55;100.00
66627;BME280;53498;50.422;14.912;2023-11-21T15:48:49;98665.00;;;5.68;100.00
66627;BME280;53498;50.422;14.912;2023-11-21T15:51:18;98673.63;;;5.71;100.00
66627;BME280;53498;50.422;14.912;2023-11-21T15:53:44;98677.00;;;5.64;100.00
66627;BME280;53498;50.422;14.912;2023-11-21T15:56:10;98682.88;;;5.55;100.00
66627;BME280;53498;50.422;14.912;2023-11-21T15:58:40;98689.03;;;5.65;100.00
66627;BME280;53498;50.422;14.912;2023-11-21T16:01:11;98687.25;;;5.61;100.00
66627;BME280;53498;50.422;14.912;2023-11-21T16:03:38;98693.06;;;5.48;100.00
66627;BME280;53498;50.422;14.912;2023-11-21T16:06:07;98697.19;;;5.33;100.00
66627;BME280;53498;50.422;14.912;2023-11-21T16:12:25;98689.22;;;5.20;100.00
66627;BME280;53498;50.422;14.912;2023-11-21T16:14:51;98696.66;;;5.01;100.00
66627;BME280;53498;50.422;14.912;2023-11-21T16:17:17;98698.38;;;5.01;100.00
66627;BME280;53498;50.422;14.912;2023-11-21T16:19:43;98690.69;;;5.02;100.00
66627;BME280;53498;50.422;14.912;2023-11-21T16:22:10;98700.94;;;4.99;100.00
66627;BME280;53498;50.422;14.912;2023-11-21T16:24:36;98700.09;;;4.99;100.00
66627;BME280;53498;50.422;14.912;2023-11-21T16:27:02;98718.03;;;4.94;100.00
66627;BME280;53498;50.422;14.912;2023-11-21T16:29:30;98714.69;;;4.98;100.00
66627;BME280;53498;50.422;14.912;2023-11-21T16:31:56;98717.13;;;4.91;100.00
66627;BME280;53498;50.422;14.912;2023-11-21T16:34:22;98723.66;;;4.72;100.00
66627;BME280;53498;50.422;14.912;2023-11-21T16:36:48;98722.00;;;4.74;100.00
66627;BME280;53498;50.422;14.912;2023-11-21T16:39:17;98726.38;;;4.79;100.00
66627;BME280;53498;50.422;14.912;2023-11-21T16:41:45;98728.06;;;4.77;100.00
66627;BME280;53498;50.422;14.912;2023-11-21T16:44:18;98734.88;;;4.74;100.00
66627;BME280;53498;50.422;14.912;2023-11-21T16:46:48;98735.59;;;4.65;100.00
66627;BME280;53498;50.422;14.912;2023-11-21T16:49:23;98738.00;;;4.56;100.00
66627;BME280;53498;50.422;14.912;2023-11-21T16:51:49;98742.06;;;4.45;100.00
66627;BME280;53498;50.422;14.912;2023-11-21T16:54:19;98743.88;;;4.49;100.00
66627;BME280;53498;50.422;14.912;2023-11-21T16:56:45;98743.94;;;4.52;100.00
